Historyczne dane pomiarowe

Dodano dane terminowe – wersja testowa.

Dane z okresu 1951-2019

Wersja bazy: 1.34 [2019-03-16, lista zmian], aktualizacja planowana na 2019-04-15

Dane meteo z obszaru Polski uzyskane na podstawie danych udostępnionych przez Instytut Meteorologii i Gospodarki Wodnej – Państwowy Instytut Badawczy.

 

Wybierz Datę:    

       

TemperaturaWilgotnośćZachmurzenieWiatrCiśnienieWidzialnośćZjawiska
 Data    tng td wb rh cc ccl cl cm ch dir g1 g2 mslp ppp      
1999-07-15 00:00:00 17.4--- 16.9 17.197wxwxwx1wx--1001.4 979.8 2.8---wxw1
1999-07-15 01:00:00 17.4--- 16.9 17.197wxwxwx0wx--1001.3 979.7----wx
1999-07-15 02:00:00 17.4--- 16.9 17.197wxwxwx0wx--1001.3 979.7----wx
1999-07-15 03:00:00 17.5--- 16.9 17.196wxwxwx0wx--1001.8 980.2----wx
1999-07-15 04:00:00 17.7--- 17.1 17.396wxwxwx0wx--1002.0 980.4----wx
1999-07-15 05:00:00 16.2--- 15.2 15.694wxwxwx3wx--1002.9 981.2----wx
1999-07-15 06:00:00 16.3--- 14.8 15.491wxwxwx4wx--1003.6 981.9 0.0---wx
1999-07-15 07:00:00 15.2--- 13.9 14.492wxwxwx3wx--1004.1 982.3----wx
1999-07-15 08:00:00 15.2--- 14.5 14.896wxwxwx2wx--1004.6 982.8----wxw1
1999-07-15 09:00:00 15.3--- 14.8 15.097wxwxwx4wx--1005.8 983.9----wx
1999-07-15 10:00:00 15.4--- 14.6 14.995wxwxwxwx2wx--1006.0 984.1----wxw1
1999-07-15 11:00:00 16.0--- 15.4 15.696wxwxwxwx3wx--1006.2 984.4----wxw1
1999-07-15 12:00:00 17.2--- 16.6 16.896wxwxwxwx5wx--1006.3 984.6 7.5---wxw1
1999-07-15 13:00:00 18.0--- 15.4 16.485wxwxwx4wx--1006.7 985.0----wx
1999-07-15 14:00:00 16.8--- 15.0 15.789wxwxwx2wx--1007.2 985.4----wx
1999-07-15 15:00:00 15.9--- 14.3 14.990wxwxwxwx3wx--1007.8 985.9----wxw1
1999-07-15 16:00:00 15.0--- 13.7 14.292wxwxwx2wx--1008.3 986.4----wxw1
1999-07-15 17:00:00 15.3--- 14.1 14.693wxwxwx1wx--1008.6 986.7----wx
1999-07-15 18:00:00 15.4--- 14.4 14.894wxwxwx2wx--1009.0 987.1 1.9---wxw1
1999-07-15 19:00:00 15.4--- 14.6 14.995wxwxwx1wx--1009.4 987.5----wx
1999-07-15 20:00:00 15.0--- 14.3 14.696wxwxwx1wx--1009.9 987.9----wx
1999-07-15 21:00:00 14.3--- 13.6 13.996wxwxwxwx2wx--1010.3 988.3----wxw1
1999-07-15 22:00:00 13.2--- 12.5 12.896wxwxwxwx2wx--1010.8 988.7----wx
1999-07-15 23:00:00 12.7--- 11.8 12.294wxwxwxwx3wx--1011.1 988.9----wx

 

Źródłem pochodzenia danych jest Instytut Meteorologii i Gospodarki Wodnej – Państwowy Instytut Badawczy. Dane Instytutu Meteorologii i Gospodarki Wodnej – Państwowego Instytutu Badawczego zostały przetworzone.

Dane źródłowe można odnaleźć na stronie https://dane.imgw.pl